Time;durP1;ratioP1;P1;durP2;ratioP2;P2;SDS_P1;SDS_P2;PMS_P1;PMS_P2;Temp;Humidity;BMP_temperature;BMP_pressure;BME280_temperature;BME280_humidity;BME280_pressure;Samples;Min_cycle;Max_cycle;Signal;HPM_P1;HPM_P2
2021/05/05 00:01:19;;;;;;;;;;;7.50;95.70;;;;;;5103462;28;19920;-70
2021/05/05 00:03:44;;;;;;;;;;;7.50;95.70;;;;;;5085779;28;19911;-70
2021/05/05 00:06:11;;;;;;;;;;;7.50;95.50;;;;;;5104884;28;19912;-71
2021/05/05 00:08:37;;;;;;;;;;;7.50;95.60;;;;;;5100286;28;19931;-70
2021/05/05 00:11:03;;;;;;;;;;;7.50;95.60;;;;;;5101510;28;20317;-70
2021/05/05 00:13:28;;;;;;;;;;;7.40;95.50;;;;;;5105665;28;20312;-70
2021/05/05 00:15:54;;;;;;;;;;;7.40;95.40;;;;;;5104458;27;19969;-70
2021/05/05 00:18:19;;;;;;;;;;;7.40;95.70;;;;;;5100680;28;19919;-70
2021/05/05 00:20:45;;;;;;;;;;;7.30;95.60;;;;;;5111230;27;19912;-70
2021/05/05 00:23:10;;;;;;;;;;;7.20;95.60;;;;;;5100525;28;19913;-71
2021/05/05 00:25:36;;;;;;;;;;;7.20;95.60;;;;;;5103366;28;19919;-70
2021/05/05 00:28:01;;;;;;;;;;;7.10;95.60;;;;;;5098714;28;19919;-70
2021/05/05 00:30:27;;;;;;;;;;;7.20;95.50;;;;;;5098550;28;19920;-70
2021/05/05 00:32:53;;;;;;;;;;;7.10;95.70;;;;;;5100071;28;20017;-70
2021/05/05 00:35:18;;;;;;;;;;;7.10;95.70;;;;;;5100143;28;20065;-70
2021/05/05 00:37:44;;;;;;;;;;;7.00;95.60;;;;;;5099993;28;19920;-70
2021/05/05 00:40:10;;;;;;;;;;;7.00;95.50;;;;;;5100932;27;19932;-70
2021/05/05 00:42:36;;;;;;;;;;;6.90;95.50;;;;;;5101348;28;20244;-70
2021/05/05 00:45:08;;;;;;;;;;;6.80;95.50;;;;;;5080336;28;19920;-70
2021/05/05 00:47:34;;;;;;;;;;;6.80;95.60;;;;;;5099758;28;19923;-70
2021/05/05 00:49:59;;;;;;;;;;;6.70;95.70;;;;;;5101970;28;19915;-70
2021/05/05 00:52:26;;;;;;;;;;;6.60;95.70;;;;;;5099916;28;19920;-70
2021/05/05 00:54:52;;;;;;;;;;;6.60;95.70;;;;;;5102774;28;19948;-69
2021/05/05 00:57:18;;;;;;;;;;;6.50;95.70;;;;;;5080393;28;19974;-70
2021/05/05 00:59:43;;;;;;;;;;;6.40;95.90;;;;;;5099335;28;19923;-69
2021/05/05 01:02:09;;;;;;;;;;;6.30;96.00;;;;;;5099187;28;19926;-69
2021/05/05 01:04:35;;;;;;;;;;;6.20;96.00;;;;;;5086402;28;20010;-69
2021/05/05 01:07:01;;;;;;;;;;;6.20;95.90;;;;;;5101957;28;19951;-69
2021/05/05 01:09:27;;;;;;;;;;;6.00;96.10;;;;;;5099593;28;19918;-69
2021/05/05 01:11:53;;;;;;;;;;;6.00;96.00;;;;;;5102032;28;20049;-71
2021/05/05 01:14:19;;;;;;;;;;;5.90;96.10;;;;;;5101384;28;19931;-71
2021/05/05 01:16:44;;;;;;;;;;;5.80;96.00;;;;;;5097351;28;19923;-70
2021/05/05 01:19:10;;;;;;;;;;;5.80;96.10;;;;;;5103386;28;19920;-70
2021/05/05 01:21:36;;;;;;;;;;;5.70;96.10;;;;;;5082830;28;19912;-70
2021/05/05 01:24:02;;;;;;;;;;;5.70;96.00;;;;;;5097510;28;19966;-70
2021/05/05 01:26:28;;;;;;;;;;;5.60;95.90;;;;;;5103646;28;20353;-71
2021/05/05 01:28:57;;;;;;;;;;;5.60;96.10;;;;;;5102161;28;19955;-70
2021/05/05 01:31:23;;;;;;;;;;;5.60;96.10;;;;;;5100518;28;19915;-70
2021/05/05 01:33:49;;;;;;;;;;;5.50;96.10;;;;;;5101096;28;20042;-71
2021/05/05 01:36:15;;;;;;;;;;;5.50;96.00;;;;;;5098966;28;20016;-70
2021/05/05 01:38:41;;;;;;;;;;;5.50;96.00;;;;;;5097919;28;19916;-70
2021/05/05 01:41:07;;;;;;;;;;;5.50;95.90;;;;;;5084494;28;19922;-70
2021/05/05 01:43:32;;;;;;;;;;;5.50;95.90;;;;;;5097513;28;19930;-70
2021/05/05 01:45:58;;;;;;;;;;;5.50;95.90;;;;;;5101218;28;19919;-70
2021/05/05 01:48:23;;;;;;;;;;;5.50;95.90;;;;;;5105108;28;19926;-70
2021/05/05 01:50:49;;;;;;;;;;;5.50;95.90;;;;;;5101132;28;19920;-70
2021/05/05 01:53:16;;;;;;;;;;;5.40;96.20;;;;;;5080568;28;19998;-69
2021/05/05 01:55:42;;;;;;;;;;;5.40;95.80;;;;;;5103033;28;20237;-71
2021/05/05 01:58:07;;;;;;;;;;;5.40;96.00;;;;;;5097439;28;19916;-70
2021/05/05 02:00:33;;;;;;;;;;;5.30;95.90;;;;;;5099945;28;19930;-70
2021/05/05 02:02:58;;;;;;;;;;;5.40;95.80;;;;;;5102286;28;19995;-71
2021/05/05 02:05:24;;;;;;;;;;;5.40;96.20;;;;;;5101909;28;20378;-70
2021/05/05 02:07:49;;;;;;;;;;;5.30;96.00;;;;;;5077220;28;20037;-71
2021/05/05 02:10:17;;;;;;;;;;;5.30;96.20;;;;;;5098517;28;19974;-70
2021/05/05 02:12:43;;;;;;;;;;;5.30;96.20;;;;;;5098974;28;19920;-70
2021/05/05 02:15:09;;;;;;;;;;;5.20;96.40;;;;;;5096344;28;19978;-70
2021/05/05 02:17:36;;;;;;;;;;;5.20;96.40;;;;;;5098408;28;19956;-70
2021/05/05 02:20:09;;;;;;;;;;;5.30;96.30;;;;;;5101619;28;19923;-70
2021/05/05 02:22:35;;;;;;;;;;;5.20;96.40;;;;;;5099080;28;19928;-70
2021/05/05 02:25:00;;;;;;;;;;;5.30;96.50;;;;;;5100094;28;19916;-69
2021/05/05 02:27:27;;;;;;;;;;;5.20;96.40;;;;;;5098977;28;19951;-70
2021/05/05 02:29:53;;;;;;;;;;;5.20;96.50;;;;;;5099735;28;19912;-69
2021/05/05 02:32:20;;;;;;;;;;;5.20;97.00;;;;;;5099467;28;20213;-70
2021/05/05 02:34:46;;;;;;;;;;;5.10;97.00;;;;;;5100035;28;20046;-70
2021/05/05 02:37:12;;;;;;;;;;;5.10;96.80;;;;;;5097583;28;19981;-70
2021/05/05 02:39:41;;;;;;;;;;;5.10;96.90;;;;;;5099573;28;19924;-70
2021/05/05 02:42:08;;;;;;;;;;;5.10;96.60;;;;;;5095401;28;20216;-70
2021/05/05 02:44:33;;;;;;;;;;;5.00;96.90;;;;;;5101754;28;20045;-71
2021/05/05 02:47:02;;;;;;;;;;;5.00;96.80;;;;;;5100240;28;20271;-70
2021/05/05 02:49:27;;;;;;;;;;;5.00;96.70;;;;;;5097643;28;20294;-71
2021/05/05 02:51:53;;;;;;;;;;;5.00;97.00;;;;;;5098649;28;19916;-70
2021/05/05 02:54:18;;;;;;;;;;;4.90;96.80;;;;;;5098362;28;19931;-70
2021/05/05 02:56:44;;;;;;;;;;;4.90;96.90;;;;;;5104414;28;20317;-70
2021/05/05 02:59:09;;;;;;;;;;;4.90;96.90;;;;;;5098552;28;20015;-70
2021/05/05 03:01:35;;;;;;;;;;;4.90;96.80;;;;;;5101345;28;19965;-71
2021/05/05 03:04:00;;;;;;;;;;;4.90;96.60;;;;;;5101016;28;19920;-70
2021/05/05 03:06:27;;;;;;;;;;;4.90;96.70;;;;;;5101636;28;20251;-70
2021/05/05 03:08:52;;;;;;;;;;;4.80;96.60;;;;;;5104521;28;19970;-70
2021/05/05 03:11:18;;;;;;;;;;;4.80;96.60;;;;;;5104205;28;19974;-70
2021/05/05 03:13:43;;;;;;;;;;;4.80;96.70;;;;;;5104484;28;20300;-70
2021/05/05 03:16:09;;;;;;;;;;;4.80;96.40;;;;;;5106235;28;19959;-71
2021/05/05 03:18:35;;;;;;;;;;;4.90;96.50;;;;;;5100733;28;20213;-69
2021/05/05 03:21:00;;;;;;;;;;;4.90;96.50;;;;;;5113476;28;19912;-70
2021/05/05 03:23:26;;;;;;;;;;;4.90;96.50;;;;;;5107128;28;19912;-70
2021/05/05 03:25:52;;;;;;;;;;;4.90;96.30;;;;;;5109526;28;20340;-71
2021/05/05 03:28:17;;;;;;;;;;;4.80;96.60;;;;;;5100551;28;19959;-70
2021/05/05 03:30:43;;;;;;;;;;;4.90;96.70;;;;;;5100436;28;19912;-70
2021/05/05 03:33:09;;;;;;;;;;;4.80;96.80;;;;;;5105210;28;19912;-70
2021/05/05 03:35:34;;;;;;;;;;;4.70;96.80;;;;;;5108258;28;19978;-70
2021/05/05 03:38:00;;;;;;;;;;;4.80;96.90;;;;;;5100841;28;20268;-70
2021/05/05 03:40:25;;;;;;;;;;;4.70;96.80;;;;;;5099293;28;19916;-71
2021/05/05 03:42:51;;;;;;;;;;;4.70;96.80;;;;;;5090154;28;19920;-71
2021/05/05 03:45:16;;;;;;;;;;;4.70;96.70;;;;;;5104919;27;20281;-70
2021/05/05 03:47:42;;;;;;;;;;;4.70;96.60;;;;;;5105851;28;19958;-70
2021/05/05 03:50:10;;;;;;;;;;;4.70;96.70;;;;;;5105252;28;19912;-69
2021/05/05 03:52:36;;;;;;;;;;;4.70;96.80;;;;;;5103106;28;19927;-70
2021/05/05 03:55:02;;;;;;;;;;;4.60;96.70;;;;;;5099969;28;19920;-69
2021/05/05 03:57:28;;;;;;;;;;;4.60;96.70;;;;;;5102364;27;19951;-69
2021/05/05 03:59:53;;;;;;;;;;;4.60;96.50;;;;;;5101926;28;19955;-69
2021/05/05 04:02:19;;;;;;;;;;;4.60;96.60;;;;;;5102836;28;20204;-69
2021/05/05 04:04:45;;;;;;;;;;;4.60;96.50;;;;;;5104283;28;20300;-68
2021/05/05 04:07:10;;;;;;;;;;;4.60;96.70;;;;;;5098297;28;19916;-70
2021/05/05 04:09:36;;;;;;;;;;;4.60;97.00;;;;;;5101466;28;20409;-71
2021/05/05 04:12:02;;;;;;;;;;;4.60;96.70;;;;;;5099795;28;20217;-70
2021/05/05 04:14:28;;;;;;;;;;;4.50;96.90;;;;;;5100215;28;20287;-71
2021/05/05 04:16:53;;;;;;;;;;;4.50;96.90;;;;;;5102767;28;19967;-71
2021/05/05 04:19:19;;;;;;;;;;;4.50;97.00;;;;;;5103333;28;19962;-71
2021/05/05 04:21:44;;;;;;;;;;;4.50;96.90;;;;;;5099715;28;19924;-70
2021/05/05 04:24:12;;;;;;;;;;;4.50;96.70;;;;;;5102879;28;21439;-70
2021/05/05 04:26:38;;;;;;;;;;;4.50;96.70;;;;;;5099583;28;20042;-69
2021/05/05 04:29:04;;;;;;;;;;;4.50;96.90;;;;;;5106137;28;20308;-70
2021/05/05 04:31:30;;;;;;;;;;;4.50;97.30;;;;;;5103090;28;19927;-70
2021/05/05 04:33:55;;;;;;;;;;;4.40;97.50;;;;;;5104198;28;20368;-70
2021/05/05 04:36:21;;;;;;;;;;;4.30;97.00;;;;;;5086523;28;20006;-70
2021/05/05 04:38:46;;;;;;;;;;;4.30;97.40;;;;;;5098648;28;19924;-69
2021/05/05 04:41:12;;;;;;;;;;;4.10;97.40;;;;;;5099908;28;19927;-71
2021/05/05 04:43:40;;;;;;;;;;;4.10;97.70;;;;;;5101258;28;19913;-70
2021/05/05 04:46:06;;;;;;;;;;;4.00;97.50;;;;;;5103331;28;20308;-70
2021/05/05 04:48:32;;;;;;;;;;;4.10;97.30;;;;;;5100061;28;19920;-69
2021/05/05 04:50:57;;;;;;;;;;;4.10;97.30;;;;;;5102149;28;19931;-70
2021/05/05 04:53:23;;;;;;;;;;;4.10;97.20;;;;;;5103145;28;19920;-69
2021/05/05 04:55:49;;;;;;;;;;;4.10;97.00;;;;;;5105185;28;19920;-69
2021/05/05 04:58:14;;;;;;;;;;;4.10;97.70;;;;;;5103564;28;19958;-69
2021/05/05 05:00:40;;;;;;;;;;;4.00;97.50;;;;;;5102836;28;19920;-70
2021/05/05 05:03:05;;;;;;;;;;;4.00;97.40;;;;;;5100659;27;20029;-69
2021/05/05 05:05:31;;;;;;;;;;;4.00;97.40;;;;;;5083167;28;19920;-70
2021/05/05 05:07:58;;;;;;;;;;;4.00;97.30;;;;;;5100697;28;20186;-70
2021/05/05 05:10:23;;;;;;;;;;;4.00;97.40;;;;;;5103439;28;19970;-70
2021/05/05 05:12:49;;;;;;;;;;;4.00;97.30;;;;;;5099312;28;20280;-71
2021/05/05 05:15:14;;;;;;;;;;;4.10;97.30;;;;;;5101756;28;19926;-71
2021/05/05 05:17:40;;;;;;;;;;;4.10;97.00;;;;;;5104757;28;19998;-70
2021/05/05 05:20:08;;;;;;;;;;;4.10;96.80;;;;;;5099159;28;20323;-68
2021/05/05 05:22:35;;;;;;;;;;;4.10;96.90;;;;;;5099893;28;20335;-68
2021/05/05 05:25:02;;;;;;;;;;;4.20;96.90;;;;;;5116599;28;19919;-68
2021/05/05 05:27:27;;;;;;;;;;;4.20;97.20;;;;;;5106492;28;19912;-68
2021/05/05 05:29:53;;;;;;;;;;;4.10;97.70;;;;;;5105769;28;20040;-68
2021/05/05 05:32:19;;;;;;;;;;;4.10;97.40;;;;;;5083078;28;19974;-68
2021/05/05 05:34:44;;;;;;;;;;;4.10;97.60;;;;;;5099905;28;19912;-68
2021/05/05 05:37:10;;;;;;;;;;;4.10;97.70;;;;;;5083977;28;20320;-69
2021/05/05 05:39:35;;;;;;;;;;;4.10;97.50;;;;;;5080905;28;19923;-70
2021/05/05 05:42:01;;;;;;;;;;;4.10;97.50;;;;;;5105379;28;19919;-70
2021/05/05 05:44:26;;;;;;;;;;;4.10;97.60;;;;;;5100223;28;20228;-70
2021/05/05 05:46:52;;;;;;;;;;;4.20;97.30;;;;;;5080080;28;20330;-70
2021/05/05 05:49:17;;;;;;;;;;;4.30;97.50;;;;;;5106148;28;20006;-70
2021/05/05 05:51:43;;;;;;;;;;;4.30;97.30;;;;;;5099758;28;19919;-71
2021/05/05 05:54:08;;;;;;;;;;;4.40;97.40;;;;;;5098169;28;19912;-71
2021/05/05 05:56:34;;;;;;;;;;;4.50;97.50;;;;;;5096296;28;19920;-70
2021/05/05 05:58:59;;;;;;;;;;;4.60;97.60;;;;;;5104527;28;20007;-70
2021/05/05 06:01:25;;;;;;;;;;;4.50;97.70;;;;;;5100172;28;20324;-70
2021/05/05 06:03:51;;;;;;;;;;;4.60;97.70;;;;;;5112402;28;19912;-71
2021/05/05 06:06:16;;;;;;;;;;;4.60;97.80;;;;;;5116229;28;20003;-70
2021/05/05 06:08:42;;;;;;;;;;;4.70;97.80;;;;;;5115123;28;20300;-70
2021/05/05 06:11:07;;;;;;;;;;;4.70;98.00;;;;;;5116422;28;19914;-70
2021/05/05 06:13:33;;;;;;;;;;;4.70;98.00;;;;;;5115146;28;19918;-70
2021/05/05 06:15:59;;;;;;;;;;;4.70;98.00;;;;;;5115998;28;19926;-71
2021/05/05 06:18:24;;;;;;;;;;;4.70;97.90;;;;;;5107790;28;20010;-71
2021/05/05 06:20:50;;;;;;;;;;;4.90;97.90;;;;;;5095929;28;20613;-70
2021/05/05 06:23:15;;;;;;;;;;;5.00;98.00;;;;;;5097487;28;19912;-70
2021/05/05 06:25:41;;;;;;;;;;;5.00;97.60;;;;;;5077950;28;19998;-70
2021/05/05 06:28:07;;;;;;;;;;;4.90;97.90;;;;;;5103925;28;19919;-71
2021/05/05 06:30:32;;;;;;;;;;;4.90;98.00;;;;;;5116226;28;20320;-71
2021/05/05 06:33:01;;;;;;;;;;;4.80;97.60;;;;;;5115089;28;20312;-71
2021/05/05 06:35:26;;;;;;;;;;;4.70;97.90;;;;;;5117390;28;19916;-71
2021/05/05 06:37:52;;;;;;;;;;;4.70;97.60;;;;;;5118978;28;19916;-71
2021/05/05 06:40:19;;;;;;;;;;;4.70;98.00;;;;;;5119817;28;20053;-70
2021/05/05 06:42:44;;;;;;;;;;;4.70;98.00;;;;;;5118407;28;19919;-71
2021/05/05 06:45:10;;;;;;;;;;;4.70;98.00;;;;;;5119177;28;19912;-70
2021/05/05 06:47:36;;;;;;;;;;;4.70;97.80;;;;;;5119908;28;19908;-70
2021/05/05 06:50:03;;;;;;;;;;;4.70;97.70;;;;;;5117847;28;19916;-69
2021/05/05 06:52:29;;;;;;;;;;;4.70;97.80;;;;;;5098366;28;19916;-69
2021/05/05 06:54:54;;;;;;;;;;;4.80;98.00;;;;;;5100336;28;19962;-69
2021/05/05 06:57:20;;;;;;;;;;;4.80;98.00;;;;;;5119614;28;19915;-70
2021/05/05 06:59:45;;;;;;;;;;;4.90;97.90;;;;;;5119534;28;19916;-71
2021/05/05 07:02:11;;;;;;;;;;;5.00;98.00;;;;;;5103349;28;20025;-71
2021/05/05 07:04:37;;;;;;;;;;;5.20;98.00;;;;;;5119572;28;19919;-71
2021/05/05 07:07:02;;;;;;;;;;;5.20;97.80;;;;;;5105458;28;19920;-71
2021/05/05 07:09:27;;;;;;;;;;;5.50;98.00;;;;;;5105529;28;19937;-71
2021/05/05 07:11:53;;;;;;;;;;;5.60;98.00;;;;;;5100482;28;19966;-70
2021/05/05 07:14:19;;;;;;;;;;;5.70;98.00;;;;;;5114139;28;19915;-71
2021/05/05 07:16:44;;;;;;;;;;;5.80;98.00;;;;;;5101001;28;19923;-69
2021/05/05 07:19:10;;;;;;;;;;;5.90;98.00;;;;;;5117400;28;19960;-70
2021/05/05 07:21:35;;;;;;;;;;;5.90;97.80;;;;;;5118033;28;19915;-70
2021/05/05 07:24:01;;;;;;;;;;;5.90;97.90;;;;;;5100430;28;19912;-70
2021/05/05 07:26:26;;;;;;;;;;;5.90;98.00;;;;;;5101087;28;19908;-70
2021/05/05 07:28:52;;;;;;;;;;;5.80;98.00;;;;;;5112749;28;20410;-71
2021/05/05 07:31:21;;;;;;;;;;;5.90;97.70;;;;;;5104438;27;19996;-70
2021/05/05 07:33:49;;;;;;;;;;;5.90;98.00;;;;;;5118846;28;19918;-71
2021/05/05 07:36:18;;;;;;;;;;;6.00;97.40;;;;;;5116008;28;19920;-71
2021/05/05 07:49:09;;;;;;;;;;;6.80;94.30;;;;;;5098324;28;19913;-71
2021/05/05 07:51:34;;;;;;;;;;;6.80;92.70;;;;;;5105540;28;20331;-70
2021/05/05 07:54:00;;;;;;;;;;;6.60;94.10;;;;;;5116162;28;19911;-70
2021/05/05 07:56:25;;;;;;;;;;;6.30;94.40;;;;;;5098047;28;20015;-70
2021/05/05 07:58:51;;;;;;;;;;;6.20;95.10;;;;;;5112662;27;19911;-70
2021/05/05 08:01:17;;;;;;;;;;;6.30;95.40;;;;;;5118164;28;20211;-71
2021/05/05 08:03:42;;;;;;;;;;;6.30;95.00;;;;;;5118613;28;20350;-71
2021/05/05 08:06:08;;;;;;;;;;;6.10;95.70;;;;;;5099523;28;19919;-71
2021/05/05 08:08:34;;;;;;;;;;;6.70;95.50;;;;;;5096693;28;19909;-71
2021/05/05 08:10:59;;;;;;;;;;;7.90;90.90;;;;;;5096455;28;19912;-71
2021/05/05 08:13:26;;;;;;;;;;;7.60;89.90;;;;;;5118408;28;19915;-71
2021/05/05 08:15:52;;;;;;;;;;;7.30;90.40;;;;;;5101936;28;19920;-71
2021/05/05 08:18:18;;;;;;;;;;;6.90;90.80;;;;;;5097680;28;19919;-71
2021/05/05 08:20:44;;;;;;;;;;;8.10;90.40;;;;;;5099091;28;20225;-71
2021/05/05 08:23:11;;;;;;;;;;;8.70;86.70;;;;;;5098927;28;19998;-71
2021/05/05 08:25:40;;;;;;;;;;;8.20;84.30;;;;;;5116342;28;19919;-71
2021/05/05 08:28:06;;;;;;;;;;;7.60;85.10;;;;;;5105433;28;20049;-71
2021/05/05 08:30:31;;;;;;;;;;;7.20;88.60;;;;;;5114831;28;20002;-71
2021/05/05 08:32:57;;;;;;;;;;;7.10;86.70;;;;;;5117501;28;19955;-71
2021/05/05 08:35:23;;;;;;;;;;;7.50;87.40;;;;;;5117942;28;20323;-70
2021/05/05 08:37:49;;;;;;;;;;;8.20;85.60;;;;;;5115800;28;19911;-71
2021/05/05 08:40:15;;;;;;;;;;;8.10;82.60;;;;;;5117577;28;20006;-70
2021/05/05 08:42:41;;;;;;;;;;;7.60;84.60;;;;;;5117547;28;19947;-70
2021/05/05 08:45:10;;;;;;;;;;;7.40;84.00;;;;;;5117520;28;20003;-71
2021/05/05 08:47:36;;;;;;;;;;;7.40;86.00;;;;;;5117061;28;19957;-71
2021/05/05 08:50:04;;;;;;;;;;;7.30;86.70;;;;;;5099214;28;20296;-71
2021/05/05 08:52:30;;;;;;;;;;;7.50;86.10;;;;;;5116147;28;19911;-71
2021/05/05 08:54:55;;;;;;;;;;;7.30;86.70;;;;;;5117416;28;19977;-71
2021/05/05 08:57:22;;;;;;;;;;;7.10;86.80;;;;;;5116652;28;19941;-71
2021/05/05 08:59:47;;;;;;;;;;;6.90;86.60;;;;;;5116558;28;19923;-71
2021/05/05 09:02:13;;;;;;;;;;;6.80;87.80;;;;;;5116672;28;19912;-70
2021/05/05 09:04:38;;;;;;;;;;;6.70;86.50;;;;;;5117177;28;19918;-71
2021/05/05 09:07:05;;;;;;;;;;;6.70;85.60;;;;;;5115332;28;19997;-70
2021/05/05 09:09:38;;;;;;;;;;;6.60;84.50;;;;;;5099116;28;19908;-71
2021/05/05 09:12:14;;;;;;;;;;;6.50;84.80;;;;;;5116652;27;19941;-71
2021/05/05 09:14:49;;;;;;;;;;;6.30;84.70;;;;;;5096419;28;19916;-71
2021/05/05 09:17:16;;;;;;;;;;;6.00;87.00;;;;;;5096611;28;19918;-71
2021/05/05 09:19:42;;;;;;;;;;;6.60;85.80;;;;;;5096640;28;19916;-71
2021/05/05 09:22:07;;;;;;;;;;;7.10;84.90;;;;;;5109538;28;19919;-71
2021/05/05 09:24:36;;;;;;;;;;;7.40;85.70;;;;;;5116935;28;19908;-72
2021/05/05 09:27:04;;;;;;;;;;;8.60;82.70;;;;;;5112219;28;20276;-71
2021/05/05 09:29:37;;;;;;;;;;;9.20;80.90;;;;;;5116892;28;19907;-70
2021/05/05 09:32:02;;;;;;;;;;;8.40;79.20;;;;;;5116546;28;20240;-71
2021/05/05 09:34:28;;;;;;;;;;;8.70;79.50;;;;;;5116534;28;19956;-70
2021/05/05 09:36:58;;;;;;;;;;;9.40;76.40;;;;;;5113877;28;20220;-71
2021/05/05 09:39:28;;;;;;;;;;;9.50;75.50;;;;;;5114726;28;19939;-72
2021/05/05 09:41:53;;;;;;;;;;;9.70;76.40;;;;;;5086937;28;20300;-72
2021/05/05 09:44:19;;;;;;;;;;;10.70;74.80;;;;;;5096618;28;19986;-70
2021/05/05 09:46:46;;;;;;;;;;;10.70;73.20;;;;;;5105806;28;20197;-70
2021/05/05 09:49:25;;;;;;;;;;;9.80;73.20;;;;;;5116525;28;19943;-70
2021/05/05 09:51:50;;;;;;;;;;;9.20;75.00;;;;;;5101093;28;19912;-70
2021/05/05 09:54:23;;;;;;;;;;;9.30;74.10;;;;;;5116324;28;19930;-72
2021/05/05 09:56:49;;;;;;;;;;;9.20;73.30;;;;;;5103452;28;19985;-72
2021/05/05 09:59:14;;;;;;;;;;;9.60;71.10;;;;;;5095988;28;20004;-72
2021/05/05 10:01:40;;;;;;;;;;;8.80;73.70;;;;;;5096807;28;20046;-72
2021/05/05 10:04:07;;;;;;;;;;;8.30;75.60;;;;;;5115179;28;19912;-71
2021/05/05 10:06:38;;;;;;;;;;;8.20;74.30;;;;;;5105779;28;19923;-72
2021/05/05 10:09:07;;;;;;;;;;;8.20;75.30;;;;;;5095971;28;19916;-72
2021/05/05 10:11:40;;;;;;;;;;;8.30;72.00;;;;;;5108609;28;20007;-71
2021/05/05 10:14:09;;;;;;;;;;;9.30;70.60;;;;;;5102071;28;19919;-71
2021/05/05 10:16:39;;;;;;;;;;;9.50;67.00;;;;;;5117105;28;20572;-72
2021/05/05 10:19:13;;;;;;;;;;;10.00;66.00;;;;;;5120630;28;19912;-71
2021/05/05 10:21:39;;;;;;;;;;;10.40;66.20;;;;;;5117379;28;20015;-71
2021/05/05 10:24:06;;;;;;;;;;;10.70;64.80;;;;;;5120132;28;19911;-71
2021/05/05 10:26:32;;;;;;;;;;;10.90;67.00;;;;;;5100706;28;19973;-70
2021/05/05 10:28:57;;;;;;;;;;;10.50;65.30;;;;;;5120191;28;19912;-71
2021/05/05 10:31:26;;;;;;;;;;;9.90;63.60;;;;;;5118387;28;19911;-71
2021/05/05 10:33:53;;;;;;;;;;;9.30;67.10;;;;;;5120323;28;19918;-71
2021/05/05 10:36:35;;;;;;;;;;;9.60;68.90;;;;;;5118434;28;20308;-70
2021/05/05 10:39:04;;;;;;;;;;;9.60;68.30;;;;;;5118175;28;19919;-71
2021/05/05 10:41:30;;;;;;;;;;;9.40;67.80;;;;;;5119694;28;19965;-72
2021/05/05 10:43:57;;;;;;;;;;;9.80;67.20;;;;;;5119401;28;19919;-71
2021/05/05 10:46:36;;;;;;;;;;;10.50;65.80;;;;;;5119152;28;19915;-71
2021/05/05 10:49:01;;;;;;;;;;;10.80;64.30;;;;;;5117800;28;20022;-71
2021/05/05 10:51:48;;;;;;;;;;;11.10;64.30;;;;;;5105078;28;19951;-70
2021/05/05 10:54:17;;;;;;;;;;;11.80;62.70;;;;;;5113797;27;20208;-71
2021/05/05 10:57:03;;;;;;;;;;;12.10;60.00;;;;;;5109061;28;19939;-72
2021/05/05 10:59:28;;;;;;;;;;;11.70;60.70;;;;;;5106520;28;20327;-71
2021/05/05 11:01:54;;;;;;;;;;;11.10;62.30;;;;;;5119699;28;19943;-71
2021/05/05 11:04:19;;;;;;;;;;;10.30;63.90;;;;;;5113783;28;19920;-71
2021/05/05 11:06:49;;;;;;;;;;;10.00;64.60;;;;;;5117559;28;19912;-71
2021/05/05 11:09:16;;;;;;;;;;;10.70;64.10;;;;;;5117855;28;19916;-71
2021/05/05 11:11:43;;;;;;;;;;;11.70;61.80;;;;;;5119586;28;19915;-72
2021/05/05 11:14:09;;;;;;;;;;;11.30;60.90;;;;;;5093687;28;19912;-71
2021/05/05 11:16:59;;;;;;;;;;;10.50;59.90;;;;;;5098812;28;19920;-71
2021/05/05 11:19:37;;;;;;;;;;;9.80;60.30;;;;;;5104992;28;20346;-71
2021/05/05 11:22:18;;;;;;;;;;;10.30;61.10;;;;;;5123977;27;19946;-70
2021/05/05 11:24:44;;;;;;;;;;;11.10;60.10;;;;;;5109658;27;19966;-71
2021/05/05 11:27:11;;;;;;;;;;;10.60;62.20;;;;;;5111840;28;19908;-70
2021/05/05 11:29:44;;;;;;;;;;;9.90;62.70;;;;;;5124688;27;19919;-71
2021/05/05 11:32:09;;;;;;;;;;;9.50;63.70;;;;;;5118952;28;19947;-71
2021/05/05 11:34:37;;;;;;;;;;;9.60;65.10;;;;;;5093172;28;19942;-71
2021/05/05 11:37:05;;;;;;;;;;;9.50;65.10;;;;;;5079551;28;19916;-71
2021/05/05 11:39:33;;;;;;;;;;;8.80;70.90;;;;;;5104962;28;19919;-71
2021/05/05 11:42:05;;;;;;;;;;;8.10;79.90;;;;;;5098790;28;19994;-69
2021/05/05 11:44:35;;;;;;;;;;;6.90;85.80;;;;;;5107581;28;19952;-69
2021/05/05 11:47:03;;;;;;;;;;;6.20;89.80;;;;;;5124843;27;20292;-70
2021/05/05 11:49:35;;;;;;;;;;;5.90;90.80;;;;;;5116884;28;19923;-70
2021/05/05 11:52:24;;;;;;;;;;;5.70;91.40;;;;;;5116540;28;20218;-70
2021/05/05 11:54:51;;;;;;;;;;;5.60;90.80;;;;;;5093176;28;19912;-69
2021/05/05 11:57:17;;;;;;;;;;;5.90;90.20;;;;;;5104139;28;19912;-71
2021/05/05 11:59:43;;;;;;;;;;;6.70;89.90;;;;;;5111166;28;19919;-69
2021/05/05 12:02:11;;;;;;;;;;;7.10;87.70;;;;;;5115965;27;19944;-69
2021/05/05 12:04:38;;;;;;;;;;;7.50;87.90;;;;;;5091117;28;19920;-69
2021/05/05 12:07:06;;;;;;;;;;;7.90;85.30;;;;;;5098126;28;19965;-69
2021/05/05 12:09:37;;;;;;;;;;;8.60;84.40;;;;;;5099961;28;19912;-69
2021/05/05 12:12:15;;;;;;;;;;;8.80;82.50;;;;;;5117218;28;19908;-69
2021/05/05 12:14:42;;;;;;;;;;;8.90;81.70;;;;;;5095721;28;19988;-70
2021/05/05 12:17:31;;;;;;;;;;;9.10;82.80;;;;;;5107510;28;19939;-70
2021/05/05 12:20:00;;;;;;;;;;;9.60;81.80;;;;;;5110377;28;19923;-70
2021/05/05 12:22:27;;;;;;;;;;;9.90;79.40;;;;;;5084643;28;20222;-70
2021/05/05 12:25:12;;;;;;;;;;;10.00;78.50;;;;;;5118895;27;20006;-70
2021/05/05 12:27:39;;;;;;;;;;;10.00;77.30;;;;;;5116916;28;19915;-70
2021/05/05 12:30:06;;;;;;;;;;;9.40;77.30;;;;;;5117334;28;19919;-70
2021/05/05 12:32:41;;;;;;;;;;;8.70;80.30;;;;;;5117163;28;19908;-69
2021/05/05 12:35:08;;;;;;;;;;;8.10;82.20;;;;;;5087750;28;19972;-70
2021/05/05 12:37:33;;;;;;;;;;;6.40;90.00;;;;;;5097808;28;20383;-69
2021/05/05 12:39:59;;;;;;;;;;;5.20;93.00;;;;;;5116987;28;20006;-68
2021/05/05 12:42:32;;;;;;;;;;;4.90;94.50;;;;;;5117567;28;19919;-68
2021/05/05 12:45:10;;;;;;;;;;;5.00;94.70;;;;;;5113654;28;20006;-68
2021/05/05 12:47:36;;;;;;;;;;;5.50;95.20;;;;;;5101564;28;19919;-68
2021/05/05 12:50:03;;;;;;;;;;;6.00;94.00;;;;;;5116575;28;20308;-69
2021/05/05 12:52:31;;;;;;;;;;;6.20;92.70;;;;;;5112400;28;19915;-69
2021/05/05 12:54:58;;;;;;;;;;;6.30;90.70;;;;;;5091188;27;19919;-70
2021/05/05 12:57:24;;;;;;;;;;;6.60;91.30;;;;;;5113876;28;20003;-68
2021/05/05 12:59:51;;;;;;;;;;;6.90;89.80;;;;;;5100041;28;19923;-70
2021/05/05 13:02:22;;;;;;;;;;;7.00;89.30;;;;;;5117322;28;20240;-70
2021/05/05 13:04:48;;;;;;;;;;;7.30;89.30;;;;;;5099364;28;19912;-69
2021/05/05 13:07:30;;;;;;;;;;;7.30;87.50;;;;;;5114775;28;19920;-68
2021/05/05 13:10:25;;;;;;;;;;;6.80;88.80;;;;;;5098752;28;20006;-69
2021/05/05 13:12:59;;;;;;;;;;;5.80;92.80;;;;;;5112980;28;19911;-70
2021/05/05 13:31:29;;;;;;;;;;;8.70;82.10;;;;;;5101754;28;20405;-69
2021/05/05 13:34:14;;;;;;;;;;;8.50;81.60;;;;;;5102679;28;19990;-69
2021/05/05 13:36:56;;;;;;;;;;;9.00;80.10;;;;;;5103373;28;20801;-70
2021/05/05 13:39:22;;;;;;;;;;;9.10;80.80;;;;;;5115589;28;20354;-70
2021/05/05 13:41:49;;;;;;;;;;;9.10;79.40;;;;;;5104430;28;20205;-69
2021/05/05 13:44:23;;;;;;;;;;;9.30;81.30;;;;;;5101577;28;20189;-69
2021/05/05 13:51:45;;;;;;;;;;;9.10;80.70;;;;;;5102477;28;19919;-70
2021/05/05 13:54:11;;;;;;;;;;;8.90;79.60;;;;;;5116410;28;20410;-70
2021/05/05 13:56:36;;;;;;;;;;;8.80;81.90;;;;;;5089949;28;19920;-70
2021/05/05 13:59:02;;;;;;;;;;;8.90;80.80;;;;;;5097415;28;19939;-70
2021/05/05 14:01:30;;;;;;;;;;;9.40;79.40;;;;;;5109082;28;19947;-70
2021/05/05 14:03:55;;;;;;;;;;;9.90;77.70;;;;;;5111019;28;19915;-70
2021/05/05 14:06:22;;;;;;;;;;;10.40;74.80;;;;;;5102759;28;20398;-69
2021/05/05 14:08:48;;;;;;;;;;;10.60;74.00;;;;;;5096043;28;19908;-70
2021/05/05 14:11:15;;;;;;;;;;;10.50;73.20;;;;;;5104101;28;19964;-69
2021/05/05 14:13:41;;;;;;;;;;;10.30;74.10;;;;;;5112688;28;19926;-69
2021/05/05 14:16:07;;;;;;;;;;;10.30;72.70;;;;;;5111135;28;20015;-69
2021/05/05 14:18:32;;;;;;;;;;;9.80;72.40;;;;;;5111956;28;19963;-69
2021/05/05 14:21:06;;;;;;;;;;;10.30;73.50;;;;;;5112579;28;19916;-69
2021/05/05 14:23:32;;;;;;;;;;;10.90;71.10;;;;;;5111106;28;19966;-69
2021/05/05 14:25:57;;;;;;;;;;;11.10;70.70;;;;;;5112440;28;20280;-70
2021/05/05 14:28:23;;;;;;;;;;;10.90;70.60;;;;;;5108881;28;19942;-69
2021/05/05 14:30:49;;;;;;;;;;;10.40;71.10;;;;;;5109568;28;19916;-70
2021/05/05 14:33:14;;;;;;;;;;;9.90;72.10;;;;;;5108337;28;19911;-69
2021/05/05 14:35:40;;;;;;;;;;;9.50;72.30;;;;;;5110830;28;20189;-69
2021/05/05 14:40:33;;;;;;;;;;;8.90;71.90;;;;;;5112626;28;19916;-69
2021/05/05 14:43:04;;;;;;;;;;;8.40;74.30;;;;;;5102927;28;19927;-69
2021/05/05 14:50:31;;;;;;;;;;;6.30;81.50;;;;;;5111062;28;19922;-70
2021/05/05 14:52:57;;;;;;;;;;;5.80;81.00;;;;;;5110403;28;19915;-69
2021/05/05 14:55:23;;;;;;;;;;;6.10;85.20;;;;;;5076970;28;20300;-69
2021/05/05 14:57:56;;;;;;;;;;;6.80;88.70;;;;;;5106556;28;19915;-70
2021/05/05 15:00:21;;;;;;;;;;;7.90;89.00;;;;;;5113232;28;19959;-70
2021/05/05 15:02:47;;;;;;;;;;;7.80;87.40;;;;;;5113785;28;20333;-69
2021/05/05 15:05:13;;;;;;;;;;;7.50;86.90;;;;;;5115025;27;19955;-68
2021/05/05 15:07:39;;;;;;;;;;;7.20;88.10;;;;;;5116999;27;20312;-69